createdAt,value
2023-03-29T00:00:35.813Z,3.33
2023-03-29T00:01:41.871Z,3.22
2023-03-29T00:02:48.365Z,4.18
2023-03-29T00:03:51.927Z,3.85
2023-03-29T00:04:54.286Z,4.72
2023-03-29T00:06:03.959Z,8.80
2023-03-29T00:07:07.529Z,3.33
2023-03-29T00:08:14.424Z,3.03
2023-03-29T00:09:18.254Z,4.28
2023-03-29T00:10:24.231Z,3.47
2023-03-29T00:11:27.383Z,3.13
2023-03-29T00:12:30.455Z,3.53
2023-03-29T00:13:33.603Z,6.88
2023-03-29T00:14:35.859Z,5.53
2023-03-29T00:15:38.041Z,3.65
2023-03-29T00:16:45.023Z,6.85
2023-03-29T00:17:48.499Z,5.03
2023-03-29T00:18:54.248Z,3.72
2023-03-29T00:19:57.934Z,3.47
2023-03-29T00:21:01.572Z,4.55
2023-03-29T00:22:06.127Z,5.85
2023-03-29T00:23:08.362Z,5.90
2023-03-29T00:24:10.696Z,5.93
2023-03-29T00:25:13.812Z,6.88
2023-03-29T00:26:16.402Z,3.83
2023-03-29T00:27:21.778Z,3.65
2023-03-29T00:28:28.108Z,3.70
2023-03-29T00:29:31.600Z,3.47
2023-03-29T00:30:34.907Z,3.35
2023-03-29T00:31:38.742Z,5.20
2023-03-29T00:32:43.149Z,7.55
2023-03-29T00:33:45.985Z,6.28
2023-03-29T00:34:55.629Z,6.50
2023-03-29T00:35:59.092Z,3.85
2023-03-29T00:37:02.463Z,4.72
2023-03-29T00:38:06.155Z,4.50
2023-03-29T00:39:09.481Z,4.32
2023-03-29T00:40:12.104Z,5.40
2023-03-29T00:41:14.520Z,5.28
2023-03-29T00:42:17.584Z,3.88
2023-03-29T00:43:19.862Z,4.85
2023-03-29T00:45:07.447Z,2.70
2023-03-29T00:46:09.714Z,9.57
2023-03-29T00:47:11.974Z,5.63
2023-03-29T00:48:18.064Z,4.95
2023-03-29T00:49:21.061Z,6.00
2023-03-29T00:50:29.867Z,12.55
2023-03-29T00:51:35.584Z,9.10
2023-03-29T00:52:41.228Z,5.53
2023-03-29T00:53:48.735Z,5.50
2023-03-29T00:54:54.862Z,8.35
2023-03-29T00:56:07.316Z,8.35
2023-03-29T00:57:11.866Z,6.55
2023-03-29T00:58:17.864Z,3.88
2023-03-29T00:59:24.674Z,7.45
2023-03-29T01:00:33.334Z,4.22
2023-03-29T01:01:55.016Z,3.00
2023-03-29T01:03:00.167Z,5.88
2023-03-29T01:04:08.594Z,4.03
2023-03-29T01:05:20.112Z,4.38
2023-03-29T01:06:28.924Z,3.37
2023-03-29T01:07:35.261Z,4.53
2023-03-29T01:08:47.459Z,4.13
2023-03-29T01:09:57.229Z,4.70
2023-03-29T01:11:15.837Z,3.03
2023-03-29T01:12:24.202Z,3.55
2023-03-29T01:13:41.712Z,4.53
2023-03-29T01:14:52.693Z,3.80
2023-03-29T01:15:58.998Z,4.00
2023-03-29T01:17:02.083Z,5.05
2023-03-29T01:18:04.545Z,2.97
2023-03-29T01:19:10.467Z,3.40
2023-03-29T01:20:19.146Z,4.00
2023-03-29T01:21:21.398Z,3.38
2023-03-29T01:22:54.605Z,2.70
2023-03-29T01:24:09.184Z,3.80
2023-03-29T01:25:26.725Z,2.63
2023-03-29T01:26:41.707Z,2.63
2023-03-29T01:27:53.560Z,2.63
2023-03-29T01:29:05.686Z,2.65
2023-03-29T01:30:23.479Z,4.22
2023-03-29T01:31:29.975Z,2.55
2023-03-29T01:32:44.640Z,2.15
2023-03-29T01:33:55.595Z,4.18
2023-03-29T01:35:22.370Z,2.40
2023-03-29T01:36:37.810Z,3.33
2023-03-29T01:37:49.343Z,3.42
2023-03-29T01:38:58.253Z,3.17
2023-03-29T01:40:01.453Z,2.45
2023-03-29T01:41:04.356Z,4.28
2023-03-29T01:42:25.037Z,4.72
2023-03-29T01:43:34.220Z,3.80
2023-03-29T01:45:06.379Z,4.45
2023-03-29T01:46:18.921Z,4.35
2023-03-29T01:47:27.332Z,3.65
2023-03-29T01:48:32.685Z,3.22
2023-03-29T01:49:45.267Z,3.00
2023-03-29T01:50:52.031Z,4.50
2023-03-29T01:52:11.393Z,2.88
2023-03-29T01:53:18.321Z,3.45
2023-03-29T01:54:26.271Z,5.22
2023-03-29T01:55:34.628Z,3.70
2023-03-29T01:56:43.444Z,4.22
2023-03-29T01:57:48.555Z,2.90
2023-03-29T01:59:08.288Z,2.78
2023-03-29T02:02:11.831Z,5.22
2023-03-29T02:03:17.387Z,4.28
2023-03-29T02:04:30.523Z,2.60
2023-03-29T02:05:34.922Z,3.83
2023-03-29T02:06:37.827Z,2.80
2023-03-29T02:07:43.478Z,3.60
2023-03-29T02:08:46.777Z,4.68
2023-03-29T02:09:52.511Z,4.68
2023-03-29T02:10:54.986Z,2.85
2023-03-29T02:12:00.801Z,5.03
2023-03-29T02:13:03.964Z,4.68
2023-03-29T02:14:09.822Z,2.85
2023-03-29T02:15:15.221Z,3.38
2023-03-29T02:17:34.787Z,4.07
2023-03-29T02:18:37.769Z,2.30
2023-03-29T02:19:40.355Z,2.78
2023-03-29T02:20:47.184Z,5.18
2023-03-29T02:21:58.071Z,5.15
2023-03-29T02:23:05.965Z,2.75
2023-03-29T02:24:13.297Z,4.88
2023-03-29T02:25:17.443Z,3.85
2023-03-29T02:26:22.434Z,4.53
2023-03-29T02:27:27.244Z,3.75
2023-03-29T02:28:31.849Z,3.10
2023-03-29T02:29:34.145Z,5.15
2023-03-29T02:39:35.819Z,3.88
2023-03-29T02:40:40.687Z,4.28
2023-03-29T02:41:47.160Z,3.97
2023-03-29T02:42:49.935Z,5.72
2023-03-29T02:43:53.244Z,3.72
2023-03-29T02:44:58.720Z,6.72
2023-03-29T02:46:02.718Z,3.92
2023-03-29T02:47:16.020Z,3.67
2023-03-29T02:48:22.121Z,4.32
2023-03-29T02:49:24.909Z,5.50
2023-03-29T02:50:33.596Z,4.13
2023-03-29T02:51:37.229Z,5.18
2023-03-29T02:52:44.426Z,4.25
2023-03-29T02:53:55.489Z,3.38
2023-03-29T02:55:00.386Z,3.85
2023-03-29T02:56:04.494Z,7.45
2023-03-29T02:57:07.416Z,4.13
2023-03-29T02:58:10.244Z,5.28
2023-03-29T02:59:16.831Z,6.88
2023-03-29T03:00:20.149Z,3.63
2023-03-29T03:01:23.045Z,3.58
2023-03-29T03:02:26.066Z,3.70
2023-03-29T03:03:29.749Z,4.30
2023-03-29T03:04:35.713Z,5.80
2023-03-29T03:05:38.788Z,3.88
2023-03-29T03:06:42.372Z,3.80
2023-03-29T03:07:46.275Z,5.75
2023-03-29T03:08:49.612Z,6.07
2023-03-29T03:09:52.657Z,2.35
2023-03-29T03:10:55.044Z,5.03
2023-03-29T03:11:57.258Z,3.15
2023-03-29T03:13:01.402Z,3.10
2023-03-29T03:14:07.390Z,5.63
2023-03-29T03:15:10.704Z,3.38
2023-03-29T03:16:15.313Z,4.22
2023-03-29T03:17:18.901Z,5.18
2023-03-29T03:18:23.310Z,3.88
2023-03-29T03:19:25.818Z,3.53
2023-03-29T03:20:28.233Z,3.67
2023-03-29T03:21:31.061Z,3.40
2023-03-29T03:22:35.035Z,5.88
2023-03-29T03:23:37.298Z,3.55
2023-03-29T03:24:40.080Z,3.13
2023-03-29T03:25:44.568Z,3.95
2023-03-29T03:26:47.147Z,4.43
2023-03-29T03:27:50.268Z,3.47
2023-03-29T03:28:56.360Z,3.45
2023-03-29T03:30:17.412Z,3.33
2023-03-29T03:31:41.277Z,3.42
2023-03-29T03:32:50.517Z,5.57
2023-03-29T03:34:28.067Z,3.97
2023-03-29T03:35:35.843Z,2.85
2023-03-29T03:36:38.149Z,5.15
2023-03-29T03:37:40.594Z,6.03
2023-03-29T03:38:44.259Z,3.58
2023-03-29T03:39:47.493Z,4.53
2023-03-29T03:40:55.151Z,3.25
2023-03-29T03:41:57.905Z,4.43
2023-03-29T03:43:00.512Z,3.38
2023-03-29T03:44:02.788Z,4.07
2023-03-29T03:45:08.234Z,3.78
2023-03-29T03:46:29.923Z,5.03
2023-03-29T03:47:33.997Z,4.35
2023-03-29T03:48:50.109Z,5.25
2023-03-29T03:50:06.370Z,12.50
2023-03-29T03:51:09.307Z,5.95
2023-03-29T03:52:11.805Z,4.28
2023-03-29T03:53:14.019Z,4.22
2023-03-29T03:54:35.205Z,4.90
2023-03-29T03:56:02.126Z,4.15
2023-03-29T03:57:12.680Z,4.43
2023-03-29T03:58:23.515Z,4.63
2023-03-29T03:59:26.548Z,3.63
2023-03-29T04:00:35.440Z,3.80
2023-03-29T04:01:58.492Z,3.67
2023-03-29T04:03:02.287Z,4.20
2023-03-29T04:04:05.169Z,6.30
2023-03-29T04:05:08.810Z,5.97
2023-03-29T04:06:13.881Z,3.50
2023-03-29T04:07:45.307Z,5.68
2023-03-29T04:09:06.851Z,3.60
2023-03-29T04:10:13.233Z,3.95
2023-03-29T04:11:41.842Z,5.03
2023-03-29T04:12:44.535Z,4.95
2023-03-29T04:13:46.761Z,4.25
2023-03-29T04:15:17.741Z,5.47
2023-03-29T04:16:27.730Z,5.00
2023-03-29T04:17:32.242Z,4.13
2023-03-29T04:18:38.622Z,6.00
2023-03-29T04:19:41.051Z,3.10
2023-03-29T04:20:43.912Z,4.57
2023-03-29T04:21:49.124Z,4.90
2023-03-29T04:22:51.984Z,5.97
2023-03-29T04:23:55.272Z,3.63
2023-03-29T04:24:58.239Z,5.75
2023-03-29T04:26:35.946Z,5.10
2023-03-29T04:27:46.411Z,4.80
2023-03-29T04:29:00.134Z,3.95
2023-03-29T04:30:14.398Z,3.83
2023-03-29T04:31:56.442Z,4.43
2023-03-29T04:33:23.692Z,3.30
2023-03-29T04:34:33.825Z,5.28
2023-03-29T04:35:36.578Z,4.72
2023-03-29T04:36:39.061Z,4.25
2023-03-29T04:37:48.203Z,6.47
2023-03-29T04:38:54.856Z,6.03
2023-03-29T04:40:01.342Z,4.20
2023-03-29T04:41:09.422Z,5.30
2023-03-29T04:42:30.521Z,7.13
2023-03-29T04:43:34.451Z,6.90
2023-03-29T04:44:55.575Z,6.53
2023-03-29T04:46:11.161Z,7.05
2023-03-29T04:47:40.951Z,4.88
2023-03-29T04:48:51.277Z,5.15
2023-03-29T04:50:01.628Z,6.13
2023-03-29T04:51:12.721Z,5.15
2023-03-29T04:52:19.234Z,6.53
2023-03-29T04:53:22.184Z,4.65
2023-03-29T04:54:25.582Z,5.05
2023-03-29T04:55:41.225Z,4.53
2023-03-29T04:56:46.746Z,7.60
2023-03-29T04:58:11.796Z,5.45
2023-03-29T04:59:15.624Z,10.88
2023-03-29T05:00:20.411Z,5.63
2023-03-29T05:02:44.341Z,6.22
2023-03-29T05:03:47.614Z,4.25
2023-03-29T05:04:59.529Z,6.95
2023-03-29T05:06:07.089Z,6.90
2023-03-29T05:07:10.244Z,6.80
2023-03-29T05:08:12.743Z,7.03
2023-03-29T05:09:35.513Z,7.53
2023-03-29T05:10:46.322Z,4.88
2023-03-29T05:11:50.365Z,7.43
2023-03-29T05:12:54.044Z,3.97
2023-03-29T05:14:02.241Z,9.60
2023-03-29T05:15:08.260Z,7.25
2023-03-29T05:16:11.201Z,4.70
2023-03-29T05:17:17.072Z,5.03
2023-03-29T05:18:21.025Z,10.15
2023-03-29T05:19:23.288Z,7.65
2023-03-29T05:20:25.470Z,8.68
2023-03-29T05:21:28.480Z,3.83
2023-03-29T05:22:33.425Z,5.97
2023-03-29T05:23:36.177Z,9.13
2023-03-29T05:24:42.038Z,10.02
2023-03-29T05:25:53.430Z,6.78
2023-03-29T05:26:56.328Z,7.00
2023-03-29T05:28:00.085Z,3.67
2023-03-29T05:29:02.811Z,7.05
2023-03-29T05:30:05.941Z,4.65
2023-03-29T05:31:17.387Z,10.05
2023-03-29T05:32:23.068Z,4.72
2023-03-29T05:33:25.833Z,5.10
2023-03-29T05:34:29.650Z,6.40
2023-03-29T05:35:35.880Z,10.30
2023-03-29T05:36:42.846Z,7.60
2023-03-29T05:37:47.163Z,5.32
2023-03-29T05:38:49.814Z,4.68
2023-03-29T05:39:53.649Z,5.13
2023-03-29T05:41:10.737Z,5.25
2023-03-29T05:42:37.835Z,7.45
2023-03-29T05:43:43.949Z,4.85
2023-03-29T05:44:46.498Z,6.35
2023-03-29T05:45:55.688Z,10.60
2023-03-29T05:46:58.561Z,8.63
2023-03-29T05:48:01.882Z,7.80
2023-03-29T05:49:04.635Z,4.53
2023-03-29T05:50:32.793Z,7.65
2023-03-29T05:51:35.822Z,5.40
2023-03-29T05:52:38.724Z,8.85
2023-03-29T05:53:41.182Z,5.00
2023-03-29T05:54:43.543Z,8.13
2023-03-29T05:55:47.803Z,9.85
2023-03-29T05:56:52.531Z,6.65
2023-03-29T05:57:55.642Z,6.25
2023-03-29T05:59:02.153Z,6.53
2023-03-29T06:00:23.821Z,6.00
2023-03-29T06:01:32.384Z,6.40
2023-03-29T06:02:43.705Z,5.57
2023-03-29T06:03:47.414Z,7.53
2023-03-29T06:04:50.286Z,4.28
2023-03-29T06:06:02.251Z,6.38
2023-03-29T06:07:05.512Z,10.25
2023-03-29T06:08:08.861Z,5.47
2023-03-29T06:09:22.737Z,5.03
2023-03-29T06:10:36.408Z,5.40
2023-03-29T06:11:56.357Z,6.15
2023-03-29T06:13:18.402Z,6.32
2023-03-29T06:14:23.194Z,6.57
2023-03-29T06:15:30.805Z,7.45
2023-03-29T06:16:40.190Z,6.03
2023-03-29T06:17:45.852Z,6.55
2023-03-29T06:18:48.738Z,6.07
2023-03-29T06:19:53.083Z,7.43
2023-03-29T06:23:59.738Z,6.13
2023-03-29T06:25:07.037Z,6.68
2023-03-29T06:26:10.597Z,6.03
2023-03-29T06:27:14.299Z,5.32
2023-03-29T06:28:17.792Z,6.75
2023-03-29T06:29:20.838Z,8.32
2023-03-29T06:30:23.258Z,9.88
2023-03-29T06:31:31.510Z,7.93
2023-03-29T06:32:35.645Z,5.40
2023-03-29T06:33:43.129Z,9.82
2023-03-29T06:35:04.975Z,5.18
2023-03-29T06:36:11.886Z,6.10
2023-03-29T06:37:14.474Z,7.25
2023-03-29T06:38:17.405Z,7.38
2023-03-29T06:39:39.025Z,4.63
2023-03-29T06:41:06.842Z,8.15
2023-03-29T06:42:32.861Z,7.82
2023-03-29T06:44:04.939Z,5.68
2023-03-29T06:45:11.692Z,7.57
2023-03-29T06:46:15.040Z,8.05
2023-03-29T06:47:31.358Z,7.40
2023-03-29T06:48:33.734Z,7.95
2023-03-29T06:49:36.065Z,6.95
2023-03-29T06:50:48.349Z,7.05
2023-03-29T06:51:52.891Z,5.68
2023-03-29T06:52:56.237Z,6.97
2023-03-29T06:53:59.256Z,4.97
2023-03-29T06:55:02.802Z,9.48
2023-03-29T06:56:08.956Z,5.57
2023-03-29T06:57:16.180Z,7.13
2023-03-29T06:58:18.616Z,6.03
2023-03-29T06:59:21.402Z,5.47
2023-03-29T07:00:35.797Z,8.20
2023-03-29T07:01:47.296Z,7.13
2023-03-29T07:03:00.720Z,9.65
2023-03-29T07:04:08.153Z,7.95
2023-03-29T07:05:27.213Z,10.32
2023-03-29T07:06:29.786Z,8.30
2023-03-29T07:07:52.637Z,6.50
2023-03-29T07:09:14.134Z,10.52
2023-03-29T07:10:41.595Z,8.75
2023-03-29T07:12:02.452Z,7.32
2023-03-29T07:13:07.007Z,7.72
2023-03-29T07:14:09.664Z,5.57
2023-03-29T07:15:12.266Z,6.75
2023-03-29T07:16:32.931Z,8.18
2023-03-29T07:17:55.916Z,8.55
2023-03-29T07:18:59.038Z,8.38
2023-03-29T07:20:25.048Z,9.65
2023-03-29T07:21:38.488Z,7.90
2023-03-29T07:22:42.256Z,8.18
2023-03-29T07:23:44.484Z,8.13
2023-03-29T07:24:47.249Z,8.45
2023-03-29T07:25:50.438Z,9.35
2023-03-29T07:27:03.398Z,15.10
2023-03-29T07:28:08.008Z,10.93
2023-03-29T07:29:10.638Z,6.75
2023-03-29T07:30:19.066Z,8.43
2023-03-29T07:31:21.828Z,7.25
2023-03-29T07:32:31.629Z,8.18
2023-03-29T07:33:52.318Z,10.68
2023-03-29T07:34:55.664Z,6.50
2023-03-29T07:36:04.986Z,11.20
2023-03-29T07:37:07.413Z,6.45
2023-03-29T07:38:10.006Z,5.78
2023-03-29T07:39:16.328Z,5.10
2023-03-29T07:40:30.945Z,8.30
2023-03-29T07:41:33.154Z,7.47
2023-03-29T07:42:43.861Z,7.13
2023-03-29T07:43:51.805Z,6.55
2023-03-29T07:44:58.521Z,6.78
2023-03-29T07:46:06.566Z,10.38
2023-03-29T07:47:10.586Z,8.77
2023-03-29T07:48:14.535Z,4.82
2023-03-29T07:49:27.326Z,6.43
2023-03-29T07:50:32.536Z,8.23
2023-03-29T07:51:37.012Z,4.25
2023-03-29T07:52:44.622Z,9.75
2023-03-29T07:53:46.895Z,8.95
2023-03-29T07:55:13.773Z,8.70
2023-03-29T07:56:29.056Z,11.13
2023-03-29T07:57:49.326Z,11.52
2023-03-29T07:58:52.124Z,5.28
2023-03-29T07:59:55.171Z,7.35
2023-03-29T08:01:02.612Z,8.57
2023-03-29T08:02:23.990Z,23.13
2023-03-29T08:03:29.671Z,22.08
2023-03-29T08:04:32.236Z,21.70
2023-03-29T08:05:52.895Z,21.05
2023-03-29T08:06:56.556Z,17.70
2023-03-29T08:08:06.703Z,30.05
2023-03-29T08:09:32.016Z,36.45
2023-03-29T08:10:35.978Z,25.90
2023-03-29T08:11:41.358Z,32.05
2023-03-29T08:12:52.521Z,30.33
2023-03-29T08:14:00.297Z,19.75
2023-03-29T08:15:02.847Z,35.40
2023-03-29T08:16:09.201Z,24.83
2023-03-29T08:17:17.719Z,21.70
2023-03-29T08:18:24.549Z,26.35
2023-03-29T08:19:27.056Z,27.08
2023-03-29T08:20:39.503Z,23.52
2023-03-29T08:21:41.857Z,19.80
2023-03-29T08:22:44.669Z,38.85
2023-03-29T08:24:02.124Z,32.83
2023-03-29T08:25:18.525Z,40.15
2023-03-29T08:26:24.563Z,25.40
2023-03-29T08:27:27.208Z,34.55
2023-03-29T08:28:30.091Z,42.35
2023-03-29T08:29:32.257Z,36.95
2023-03-29T08:30:34.746Z,39.38
2023-03-29T08:31:38.467Z,41.33
2023-03-29T08:32:41.585Z,32.45
2023-03-29T08:33:45.203Z,29.88
2023-03-29T08:35:09.532Z,23.65
2023-03-29T08:36:17.552Z,28.17
2023-03-29T08:37:20.497Z,33.72
2023-03-29T08:38:27.768Z,24.20
2023-03-29T08:39:31.609Z,30.67
2023-03-29T08:41:45.995Z,20.67
2023-03-29T08:42:53.899Z,22.38
2023-03-29T08:44:20.376Z,16.52
2023-03-29T08:45:43.163Z,24.48
2023-03-29T08:47:29.825Z,21.13
2023-03-29T08:48:56.845Z,14.60
2023-03-29T08:50:01.460Z,32.35
2023-03-29T08:51:29.402Z,33.85
2023-03-29T08:52:39.375Z,37.80
2023-03-29T08:54:05.357Z,43.58
2023-03-29T08:55:43.012Z,36.42
2023-03-29T08:57:21.786Z,20.40
2023-03-29T08:58:32.227Z,26.60
2023-03-29T08:59:34.918Z,18.70
2023-03-29T09:00:47.712Z,30.13
2023-03-29T09:01:53.907Z,29.55
2023-03-29T09:03:00.051Z,23.35
2023-03-29T09:04:05.929Z,21.92
2023-03-29T09:05:39.989Z,26.60
2023-03-29T09:06:51.004Z,25.92
2023-03-29T09:07:57.396Z,18.27
2023-03-29T09:09:01.285Z,15.90
2023-03-29T09:10:03.802Z,14.80
2023-03-29T09:11:35.505Z,15.88
2023-03-29T09:13:11.999Z,14.32
2023-03-29T09:14:34.314Z,15.93
2023-03-29T09:15:45.654Z,15.27
2023-03-29T09:18:47.430Z,13.02
2023-03-29T09:19:49.757Z,9.65
2023-03-29T09:21:04.308Z,13.70
2023-03-29T09:22:29.488Z,10.60
2023-03-29T09:23:55.788Z,6.85
2023-03-29T09:25:34.544Z,7.82
2023-03-29T09:26:56.187Z,10.48
2023-03-29T09:28:59.606Z,11.57
2023-03-29T09:30:25.671Z,9.20
2023-03-29T09:31:44.412Z,4.43
2023-03-29T09:32:52.919Z,12.02
2023-03-29T09:34:06.985Z,10.43
2023-03-29T09:35:29.610Z,13.85
2023-03-29T09:36:47.192Z,6.88
2023-03-29T09:37:52.518Z,9.48
2023-03-29T09:38:55.496Z,14.15
2023-03-29T09:40:05.273Z,5.90
2023-03-29T09:41:49.344Z,5.47
2023-03-29T09:42:53.917Z,6.18
2023-03-29T09:44:00.056Z,8.18
2023-03-29T09:45:09.198Z,6.25
2023-03-29T09:46:43.283Z,4.22
2023-03-29T09:48:05.213Z,4.78
2023-03-29T09:50:31.583Z,9.07
2023-03-29T09:51:35.169Z,8.65
2023-03-29T09:52:37.641Z,9.48
2023-03-29T09:54:00.718Z,7.35
2023-03-29T09:55:28.515Z,10.85
2023-03-29T09:56:39.802Z,6.72
2023-03-29T09:57:50.074Z,5.28
2023-03-29T09:58:53.525Z,12.43
2023-03-29T09:59:57.607Z,7.18
2023-03-29T10:01:03.158Z,6.40
2023-03-29T10:02:13.449Z,4.95
2023-03-29T10:03:25.384Z,5.20
2023-03-29T10:04:42.911Z,7.47
2023-03-29T10:05:47.344Z,4.25
2023-03-29T10:06:52.745Z,5.22
2023-03-29T10:08:01.117Z,5.63
2023-03-29T10:09:04.435Z,5.00
2023-03-29T10:10:27.153Z,4.18
2023-03-29T10:11:32.963Z,6.05
2023-03-29T10:12:35.237Z,3.00
2023-03-29T10:13:45.867Z,3.17
2023-03-29T10:14:53.634Z,5.63
2023-03-29T10:16:01.804Z,6.13
2023-03-29T10:17:11.168Z,5.90
2023-03-29T10:18:13.988Z,6.80
2023-03-29T10:19:22.311Z,4.20
2023-03-29T10:20:24.781Z,5.03
2023-03-29T10:21:29.620Z,6.70
2023-03-29T10:22:35.124Z,4.72
2023-03-29T10:23:38.197Z,5.22
2023-03-29T10:24:40.454Z,4.60
2023-03-29T10:25:43.088Z,2.95
2023-03-29T10:26:45.958Z,5.50
2023-03-29T10:27:48.309Z,2.55
2023-03-29T10:28:57.028Z,3.53
2023-03-29T10:30:07.306Z,4.85
2023-03-29T10:31:18.432Z,4.70
2023-03-29T10:32:37.600Z,4.93
2023-03-29T10:33:40.164Z,3.92
2023-03-29T10:34:43.720Z,3.88
2023-03-29T10:35:48.042Z,5.72
2023-03-29T10:36:58.492Z,3.95
2023-03-29T10:38:07.522Z,3.53
2023-03-29T10:39:13.189Z,3.30
2023-03-29T10:40:22.207Z,5.70
2023-03-29T10:41:27.155Z,4.50
2023-03-29T10:42:29.445Z,3.03
2023-03-29T10:43:37.111Z,4.10
2023-03-29T10:44:39.693Z,3.35
2023-03-29T10:45:42.419Z,4.43
2023-03-29T10:46:44.815Z,4.45
2023-03-29T10:47:48.679Z,5.30
2023-03-29T10:48:56.621Z,8.73
2023-03-29T10:49:58.968Z,3.75
2023-03-29T10:51:03.194Z,6.50
2023-03-29T10:52:07.284Z,3.20
2023-03-29T10:53:18.849Z,6.70
2023-03-29T10:54:24.284Z,2.70
2023-03-29T10:55:36.855Z,4.93
2023-03-29T10:56:47.148Z,3.30
2023-03-29T10:58:01.602Z,5.85
2023-03-29T10:59:25.487Z,3.42
2023-03-29T11:00:51.100Z,3.42
2023-03-29T11:02:15.015Z,4.50
2023-03-29T11:03:40.210Z,6.22
2023-03-29T11:04:42.757Z,4.53
2023-03-29T11:05:50.593Z,3.58
2023-03-29T11:06:59.622Z,7.28
2023-03-29T11:08:19.889Z,4.35
2023-03-29T11:09:33.788Z,3.95
2023-03-29T11:11:14.889Z,6.45
2023-03-29T11:12:31.650Z,5.38
2023-03-29T11:13:40.791Z,7.55
2023-03-29T11:14:55.672Z,4.68
2023-03-29T11:16:19.725Z,3.67
2023-03-29T11:17:50.927Z,4.25
2023-03-29T11:19:02.145Z,4.10
2023-03-29T11:20:26.934Z,4.10
2023-03-29T11:21:54.222Z,7.20
2023-03-29T11:23:22.175Z,4.45
2023-03-29T11:24:38.022Z,5.30
2023-03-29T11:26:04.879Z,3.45
2023-03-29T11:27:28.805Z,4.43
2023-03-29T11:28:47.180Z,7.10
2023-03-29T11:29:58.646Z,4.18
2023-03-29T11:31:19.173Z,4.07
2023-03-29T11:32:39.085Z,3.20
2023-03-29T11:34:13.524Z,3.17
2023-03-29T11:35:47.213Z,4.28
2023-03-29T11:37:00.981Z,6.40
2023-03-29T11:38:29.294Z,5.25
2023-03-29T11:40:00.290Z,3.92
2023-03-29T11:41:18.818Z,6.05
2023-03-29T11:42:25.380Z,3.50
2023-03-29T11:43:36.908Z,7.80
2023-03-29T11:44:41.515Z,4.43
2023-03-29T11:46:09.212Z,4.38
2023-03-29T11:47:26.512Z,4.97
2023-03-29T11:48:34.730Z,3.15
2023-03-29T11:49:46.604Z,4.97
2023-03-29T11:51:16.011Z,4.85
2023-03-29T11:52:41.187Z,5.55
2023-03-29T11:53:51.247Z,3.75
2023-03-29T11:55:12.522Z,3.67
2023-03-29T11:56:26.596Z,3.47
2023-03-29T11:57:43.669Z,10.05
2023-03-29T11:58:50.368Z,10.50
2023-03-29T12:00:07.905Z,7.70
2023-03-29T12:01:50.677Z,6.25
2023-03-29T12:03:13.135Z,3.30
2023-03-29T12:04:28.724Z,5.47
2023-03-29T12:05:44.138Z,3.72
2023-03-29T12:07:28.783Z,5.53
2023-03-29T12:08:44.121Z,26.00
2023-03-29T12:09:53.082Z,11.68
2023-03-29T12:11:08.473Z,8.75
2023-03-29T12:12:19.924Z,6.95
2023-03-29T12:13:30.437Z,7.63
2023-03-29T12:14:35.738Z,5.72
2023-03-29T12:15:45.986Z,4.43
2023-03-29T12:16:53.764Z,4.40
2023-03-29T12:18:08.287Z,6.05
2023-03-29T12:19:16.452Z,3.85
2023-03-29T12:20:26.656Z,5.28
2023-03-29T12:21:30.900Z,3.25
2023-03-29T12:22:33.795Z,5.53
2023-03-29T12:23:36.364Z,3.95
2023-03-29T12:24:41.592Z,8.98
2023-03-29T12:26:11.969Z,3.53
2023-03-29T12:27:49.479Z,9.07
2023-03-29T12:29:10.589Z,3.15
2023-03-29T12:30:23.368Z,6.25
2023-03-29T12:31:31.436Z,5.15
2023-03-29T12:32:49.371Z,5.85
2023-03-29T12:34:56.087Z,6.55
2023-03-29T12:36:35.602Z,7.35
2023-03-29T12:38:24.611Z,5.75
2023-03-29T12:39:45.703Z,8.48
2023-03-29T12:41:23.313Z,4.18
2023-03-29T12:42:56.913Z,4.22
2023-03-29T12:44:20.512Z,6.97
2023-03-29T12:45:38.614Z,9.15
2023-03-29T12:46:41.129Z,5.43
2023-03-29T12:47:45.894Z,3.45
2023-03-29T12:48:53.981Z,6.97
2023-03-29T12:49:58.319Z,6.13
2023-03-29T12:51:03.302Z,5.57
2023-03-29T12:52:29.979Z,14.18
2023-03-29T12:53:35.920Z,5.57
2023-03-29T12:54:41.068Z,5.43
2023-03-29T12:55:43.510Z,4.05
2023-03-29T12:56:51.836Z,6.35
2023-03-29T12:58:03.562Z,6.07
2023-03-29T12:59:10.729Z,4.70
2023-03-29T13:00:22.386Z,5.07
2023-03-29T13:01:29.601Z,7.85
2023-03-29T13:02:42.019Z,8.85
2023-03-29T13:03:52.715Z,8.40
2023-03-29T13:04:57.451Z,4.57
2023-03-29T13:06:03.531Z,7.32
2023-03-29T13:07:12.506Z,4.53
2023-03-29T13:08:27.324Z,7.68
2023-03-29T13:09:31.179Z,4.15
2023-03-29T13:10:42.729Z,7.45
2023-03-29T13:11:51.576Z,6.17
2023-03-29T13:12:54.552Z,8.00
2023-03-29T13:13:57.908Z,3.33
2023-03-29T13:15:02.820Z,5.68
2023-03-29T13:16:19.729Z,4.40
2023-03-29T13:17:31.807Z,4.25
2023-03-29T13:18:56.009Z,6.03
2023-03-29T13:20:31.826Z,7.65
2023-03-29T13:22:07.266Z,5.07
2023-03-29T13:23:27.044Z,7.50
2023-03-29T13:24:39.026Z,4.22
2023-03-29T13:27:25.197Z,4.13
2023-03-29T13:28:49.175Z,5.80
2023-03-29T13:30:26.655Z,5.35
2023-03-29T13:31:41.703Z,8.82
2023-03-29T13:33:05.495Z,5.57
2023-03-29T13:34:26.606Z,6.20
2023-03-29T13:35:54.927Z,7.38
2023-03-29T13:37:00.377Z,5.28
2023-03-29T13:38:20.904Z,8.05
2023-03-29T13:39:28.450Z,5.25
2023-03-29T13:40:33.052Z,8.18
2023-03-29T13:41:38.062Z,6.30
2023-03-29T13:42:41.952Z,4.30
2023-03-29T13:43:44.649Z,11.07
2023-03-29T13:44:49.230Z,4.57
2023-03-29T13:46:23.714Z,4.57
2023-03-29T13:47:26.359Z,4.05
2023-03-29T13:48:31.805Z,4.90
2023-03-29T13:49:35.533Z,5.30
2023-03-29T13:50:51.371Z,7.88
2023-03-29T13:51:53.568Z,10.25
2023-03-29T13:53:05.085Z,8.77
2023-03-29T13:54:35.016Z,3.75
2023-03-29T13:55:44.227Z,2.95
2023-03-29T13:57:11.015Z,5.80
2023-03-29T13:58:29.042Z,12.63
2023-03-29T13:59:55.044Z,14.02
2023-03-29T14:01:23.270Z,6.15
2023-03-29T14:02:40.613Z,4.57
2023-03-29T14:03:46.850Z,6.07
2023-03-29T14:04:52.049Z,5.18
2023-03-29T14:05:59.585Z,5.68
2023-03-29T14:07:02.346Z,5.80
2023-03-29T14:08:33.358Z,5.88
2023-03-29T14:09:42.210Z,9.40
2023-03-29T14:10:45.812Z,5.75
2023-03-29T14:11:48.466Z,7.40
2023-03-29T14:12:51.064Z,5.72
2023-03-29T14:13:55.703Z,6.57
2023-03-29T14:15:01.514Z,8.90
2023-03-29T14:16:10.271Z,4.35
2023-03-29T14:17:19.181Z,5.60
2023-03-29T14:18:23.874Z,6.90
2023-03-29T14:19:32.473Z,4.80
2023-03-29T14:20:34.903Z,7.55
2023-03-29T14:21:37.440Z,7.22
2023-03-29T14:22:44.147Z,9.98
2023-03-29T14:23:55.045Z,5.40
2023-03-29T14:25:05.111Z,5.95
2023-03-29T14:26:19.671Z,5.05
2023-03-29T14:27:22.369Z,3.90
2023-03-29T14:28:28.789Z,6.57
2023-03-29T14:29:35.512Z,10.20
2023-03-29T14:30:37.827Z,5.88
2023-03-29T14:31:42.161Z,6.95
2023-03-29T14:32:44.913Z,3.85
2023-03-29T14:33:55.318Z,5.65
2023-03-29T14:34:58.787Z,5.05
2023-03-29T14:36:04.295Z,4.50
2023-03-29T14:37:09.058Z,7.40
2023-03-29T14:38:12.789Z,3.92
2023-03-29T14:39:18.451Z,9.25
2023-03-29T14:40:21.025Z,7.20
2023-03-29T14:41:24.546Z,5.22
2023-03-29T14:42:29.033Z,3.78
2023-03-29T14:43:32.104Z,6.55
2023-03-29T14:44:34.739Z,5.90
2023-03-29T14:45:37.930Z,5.53
2023-03-29T14:46:41.745Z,6.45
2023-03-29T14:47:45.344Z,7.43
2023-03-29T14:48:48.177Z,7.47
2023-03-29T14:49:51.344Z,4.57
2023-03-29T14:50:53.760Z,4.57
2023-03-29T14:51:57.011Z,5.55
2023-03-29T14:53:01.343Z,6.07
2023-03-29T14:54:05.470Z,4.47
2023-03-29T14:55:10.957Z,6.07
2023-03-29T14:56:17.984Z,4.50
2023-03-29T14:57:24.552Z,5.18
2023-03-29T14:58:33.457Z,5.53
2023-03-29T14:59:36.948Z,3.83
2023-03-29T15:00:43.953Z,4.65
2023-03-29T15:01:46.345Z,7.88
2023-03-29T15:02:57.482Z,7.93
2023-03-29T15:04:06.201Z,5.60
2023-03-29T15:05:25.973Z,7.95
2023-03-29T15:06:29.702Z,5.07
2023-03-29T15:07:34.578Z,5.63
2023-03-29T15:08:39.568Z,5.28
2023-03-29T15:09:45.343Z,4.25
2023-03-29T15:10:47.600Z,7.70
2023-03-29T15:11:58.615Z,6.05
2023-03-29T15:13:03.779Z,5.55
2023-03-29T15:14:09.409Z,5.80
2023-03-29T15:15:13.472Z,9.10
2023-03-29T15:16:27.682Z,6.25
2023-03-29T15:17:49.565Z,4.65
2023-03-29T15:18:53.889Z,6.07
2023-03-29T15:20:09.687Z,3.70
2023-03-29T15:21:14.893Z,5.20
2023-03-29T15:22:17.255Z,8.77
2023-03-29T15:23:23.046Z,6.93
2023-03-29T15:24:30.991Z,5.15
2023-03-29T15:25:37.060Z,5.57
2023-03-29T15:26:39.372Z,4.63
2023-03-29T15:27:42.348Z,6.07
2023-03-29T15:28:50.752Z,4.00
2023-03-29T15:30:02.621Z,5.68
2023-03-29T15:31:18.984Z,9.15
2023-03-29T15:32:23.957Z,6.88
2023-03-29T15:33:33.681Z,22.98
2023-03-29T15:34:38.178Z,21.63
2023-03-29T15:35:40.758Z,6.93
2023-03-29T15:36:46.888Z,7.45
2023-03-29T15:37:51.399Z,5.47
2023-03-29T15:38:53.691Z,6.18
2023-03-29T15:39:56.627Z,4.13
2023-03-29T15:40:59.486Z,6.10
2023-03-29T15:42:02.000Z,3.67
2023-03-29T15:43:04.228Z,4.78
2023-03-29T15:44:07.088Z,4.28
2023-03-29T15:45:17.722Z,5.15
2023-03-29T15:46:20.002Z,6.10
2023-03-29T15:47:22.551Z,6.47
2023-03-29T15:48:27.608Z,5.35
2023-03-29T15:49:29.915Z,4.25
2023-03-29T15:50:32.458Z,8.25
2023-03-29T15:51:34.710Z,3.80